createdAt,value
2023-05-19T00:00:48.533Z,8.18
2023-05-19T00:05:53.647Z,7.72
2023-05-19T00:10:55.336Z,8.90
2023-05-19T00:15:57.212Z,9.38
2023-05-19T00:20:59.271Z,8.23
2023-05-19T00:26:00.808Z,10.00
2023-05-19T00:31:03.361Z,9.38
2023-05-19T00:36:05.804Z,10.15
2023-05-19T00:41:07.402Z,9.32
2023-05-19T00:46:08.969Z,11.23
2023-05-19T00:51:14.603Z,10.65
2023-05-19T00:56:19.568Z,9.98
2023-05-19T01:01:22.432Z,10.00
2023-05-19T01:06:25.494Z,9.25
2023-05-19T01:11:27.363Z,9.45
2023-05-19T01:16:38.253Z,10.65
2023-05-19T01:22:03.171Z,9.63
2023-05-19T01:27:07.452Z,11.05
2023-05-19T01:32:10.591Z,11.25
2023-05-19T01:37:13.263Z,10.35
2023-05-19T01:42:15.280Z,10.50
2023-05-19T01:47:16.851Z,9.82
2023-05-19T01:52:18.643Z,10.38
2023-05-19T01:57:28.043Z,10.25
2023-05-19T02:02:35.383Z,10.30
2023-05-19T02:07:59.112Z,8.23
2023-05-19T02:13:04.693Z,9.93
2023-05-19T02:18:06.651Z,11.10
2023-05-19T02:23:08.281Z,10.90
2023-05-19T02:28:09.796Z,10.43
2023-05-19T02:33:11.514Z,11.10
2023-05-19T02:38:13.406Z,10.93
2023-05-19T02:43:14.945Z,10.88
2023-05-19T02:48:16.696Z,11.55
2023-05-19T02:53:18.257Z,11.05
2023-05-19T02:58:20.480Z,11.18
2023-05-19T03:03:22.327Z,11.38
2023-05-19T03:08:23.906Z,12.82
2023-05-19T03:13:25.681Z,12.48
2023-05-19T03:18:27.683Z,11.43
2023-05-19T03:23:29.768Z,11.40
2023-05-19T03:28:31.499Z,11.18
2023-05-19T03:33:33.174Z,9.85
2023-05-19T03:38:34.842Z,10.35
2023-05-19T03:43:36.882Z,10.05
2023-05-19T03:48:41.297Z,9.93
2023-05-19T03:54:01.172Z,11.35
2023-05-19T03:59:02.835Z,10.68
2023-05-19T04:04:04.603Z,10.90
2023-05-19T04:09:11.589Z,9.55
2023-05-19T04:14:14.081Z,9.00
2023-05-19T04:19:15.750Z,9.98
2023-05-19T04:24:17.347Z,9.98
2023-05-19T04:29:19.553Z,8.88
2023-05-19T04:34:21.352Z,7.25
2023-05-19T04:39:22.940Z,6.53
2023-05-19T04:44:26.400Z,6.45
2023-05-19T04:49:28.113Z,5.53
2023-05-19T04:54:29.705Z,5.57
2023-05-19T04:59:31.504Z,5.00
2023-05-19T05:04:36.032Z,4.97
2023-05-19T05:09:37.796Z,4.90
2023-05-19T05:14:40.371Z,5.50
2023-05-19T05:19:43.387Z,4.80
2023-05-19T05:24:45.183Z,4.35
2023-05-19T05:29:46.847Z,4.55
2023-05-19T05:34:49.974Z,4.47
2023-05-19T05:39:54.135Z,4.95
2023-05-19T05:44:55.757Z,4.45
2023-05-19T05:49:58.074Z,5.40
2023-05-19T05:54:59.871Z,5.38
2023-05-19T06:00:02.608Z,4.70
2023-05-19T06:05:06.083Z,4.70
2023-05-19T06:10:08.981Z,4.40
2023-05-19T06:15:11.071Z,5.63
2023-05-19T06:20:31.195Z,4.88
2023-05-19T06:25:33.882Z,5.07
2023-05-19T06:30:36.804Z,5.45
2023-05-19T06:35:54.595Z,4.97
2023-05-19T06:40:56.481Z,4.95
2023-05-19T06:45:58.902Z,4.32
2023-05-19T06:51:01.048Z,5.32
2023-05-19T06:56:02.880Z,5.30
2023-05-19T07:01:09.933Z,4.70
2023-05-19T07:06:17.802Z,5.18
2023-05-19T07:11:19.469Z,5.13
2023-05-19T07:16:22.447Z,4.72
2023-05-19T07:21:24.213Z,4.70
2023-05-19T07:26:26.735Z,5.90
2023-05-19T07:31:28.309Z,4.68
2023-05-19T07:36:29.857Z,4.75
2023-05-19T07:41:31.361Z,4.80
2023-05-19T07:46:36.473Z,6.18
2023-05-19T07:51:38.027Z,4.55
2023-05-19T07:56:39.851Z,5.05
2023-05-19T08:01:41.392Z,5.03
2023-05-19T08:06:44.435Z,5.32
2023-05-19T08:11:47.038Z,5.20
2023-05-19T08:16:48.970Z,4.95
2023-05-19T08:21:50.562Z,5.47
2023-05-19T08:26:52.119Z,5.88
2023-05-19T08:31:53.749Z,5.75
2023-05-19T08:36:57.797Z,5.57
2023-05-19T08:41:59.428Z,4.47
2023-05-19T08:47:02.808Z,4.70
2023-05-19T08:52:23.355Z,4.90
2023-05-19T08:57:25.028Z,5.53
2023-05-19T09:02:27.403Z,4.57
2023-05-19T09:07:29.404Z,5.38
2023-05-19T09:12:31.559Z,4.70
2023-05-19T09:17:33.836Z,4.95
2023-05-19T09:22:40.475Z,4.60
2023-05-19T09:27:42.033Z,4.25
2023-05-19T09:32:44.685Z,4.32
2023-05-19T09:37:46.469Z,4.70
2023-05-19T09:42:49.024Z,3.50
2023-05-19T09:47:51.318Z,3.50
2023-05-19T09:52:53.123Z,3.65
2023-05-19T09:57:57.709Z,3.53
2023-05-19T10:03:00.475Z,3.00
2023-05-19T10:08:03.203Z,3.22
2023-05-19T10:13:05.861Z,3.40
2023-05-19T10:18:09.106Z,3.75
2023-05-19T10:23:10.740Z,3.20
2023-05-19T10:28:14.746Z,2.72
2023-05-19T10:33:18.114Z,2.95
2023-05-19T10:38:29.317Z,3.35
2023-05-19T10:43:30.826Z,2.28
2023-05-19T10:48:36.554Z,2.70
2023-05-19T10:53:41.275Z,2.55
2023-05-19T10:58:45.780Z,2.40
2023-05-19T11:03:52.412Z,3.10
2023-05-19T11:08:54.661Z,2.35
2023-05-19T11:13:56.577Z,2.17
2023-05-19T11:19:01.984Z,2.28
2023-05-19T11:24:07.964Z,2.08
2023-05-19T11:29:10.334Z,2.10
2023-05-19T11:34:13.908Z,2.97
2023-05-19T11:39:15.519Z,2.25
2023-05-19T11:44:17.055Z,2.10
2023-05-19T11:49:18.731Z,2.63
2023-05-19T11:54:20.506Z,2.28
2023-05-19T11:59:29.514Z,2.05
2023-05-19T12:09:33.407Z,2.80
2023-05-19T12:14:35.875Z,2.40
2023-05-19T12:19:37.628Z,2.85
2023-05-19T12:24:39.734Z,3.00
2023-05-19T12:29:41.355Z,2.63
2023-05-19T12:34:42.886Z,2.63
2023-05-19T12:39:44.668Z,3.42
2023-05-19T12:44:51.083Z,3.53
2023-05-19T12:49:56.869Z,3.67
2023-05-19T12:55:02.639Z,3.10
2023-05-19T13:00:14.000Z,3.40
2023-05-19T13:05:15.599Z,2.90
2023-05-19T13:10:17.728Z,4.10
2023-05-19T13:15:19.339Z,3.97
2023-05-19T13:20:21.635Z,4.50
2023-05-19T13:25:23.196Z,3.72
2023-05-19T13:30:25.810Z,4.15
2023-05-19T13:35:27.641Z,3.90
2023-05-19T13:40:32.800Z,4.05
2023-05-19T13:45:34.581Z,5.38
2023-05-19T13:50:36.591Z,5.45
2023-05-19T13:55:38.373Z,6.28
2023-05-19T14:00:40.922Z,3.17
2023-05-19T14:05:42.477Z,5.65
2023-05-19T14:10:46.098Z,2.10
2023-05-19T14:15:48.909Z,2.28
2023-05-19T14:20:50.523Z,2.63
2023-05-19T14:25:52.012Z,2.70
2023-05-19T14:30:53.624Z,4.50
2023-05-19T14:35:56.002Z,4.20
2023-05-19T14:40:59.675Z,3.83
2023-05-19T14:46:01.202Z,4.03
2023-05-19T14:51:02.812Z,4.50
2023-05-19T14:56:06.471Z,2.90
2023-05-19T15:01:08.145Z,2.88
2023-05-19T15:06:13.121Z,2.58
2023-05-19T15:11:14.715Z,1.73
2023-05-19T15:16:18.073Z,2.17
2023-05-19T15:21:20.190Z,2.30
2023-05-19T15:26:22.370Z,2.50
2023-05-19T15:31:24.045Z,2.03
2023-05-19T15:36:25.587Z,1.95
2023-05-19T15:41:27.200Z,1.70
2023-05-19T15:46:29.171Z,1.40
2023-05-19T15:51:31.611Z,1.80
2023-05-19T15:56:33.157Z,1.40
2023-05-19T16:01:35.222Z,1.40
2023-05-19T16:06:36.793Z,1.60
2023-05-19T16:11:38.788Z,1.58
2023-05-19T16:16:40.523Z,1.77
2023-05-19T16:21:42.188Z,1.73
2023-05-19T16:26:43.717Z,1.48
2023-05-19T16:31:45.449Z,1.48
2023-05-19T16:36:47.068Z,1.60
2023-05-19T16:41:48.638Z,1.50
2023-05-19T16:46:50.374Z,1.27
2023-05-19T16:51:53.130Z,1.23
2023-05-19T16:56:54.749Z,1.23
2023-05-19T17:01:56.826Z,1.23
2023-05-19T17:06:58.652Z,1.50
2023-05-19T17:12:00.166Z,1.40
2023-05-19T17:17:01.836Z,1.65
2023-05-19T17:22:03.852Z,1.30
2023-05-19T17:27:05.727Z,1.52
2023-05-19T17:32:07.327Z,1.50
2023-05-19T17:37:08.930Z,1.77
2023-05-19T17:42:10.645Z,1.60
2023-05-19T17:47:12.175Z,2.20
2023-05-19T17:52:13.884Z,1.85
2023-05-19T17:57:16.044Z,1.90
2023-05-19T18:02:18.638Z,2.20
2023-05-19T18:07:22.003Z,1.85
2023-05-19T18:12:23.503Z,2.13
2023-05-19T18:17:25.062Z,2.00
2023-05-19T18:22:26.639Z,1.60
2023-05-19T18:27:28.385Z,1.90
2023-05-19T18:32:30.537Z,2.25
2023-05-19T18:37:32.073Z,2.33
2023-05-19T18:42:33.894Z,2.28
2023-05-19T18:47:35.750Z,2.47
2023-05-19T18:52:37.591Z,2.55
2023-05-19T18:57:39.129Z,3.22
2023-05-19T19:02:40.949Z,2.60
2023-05-19T19:07:44.273Z,2.70
2023-05-19T19:12:45.808Z,2.50
2023-05-19T19:17:47.472Z,3.13
2023-05-19T19:22:49.181Z,2.33
2023-05-19T19:27:50.985Z,2.90
2023-05-19T19:32:52.707Z,2.50
2023-05-19T19:37:54.290Z,2.60
2023-05-19T19:42:55.898Z,2.47
2023-05-19T19:47:57.577Z,2.00
2023-05-19T19:52:59.286Z,2.78
2023-05-19T19:58:00.844Z,2.67
2023-05-19T20:03:05.599Z,2.30
2023-05-19T20:08:07.774Z,2.33
2023-05-19T20:13:09.497Z,2.35
2023-05-19T20:18:11.251Z,2.53
2023-05-19T20:23:13.385Z,3.20
2023-05-19T20:28:15.145Z,2.70
2023-05-19T20:33:16.671Z,3.70
2023-05-19T20:38:18.187Z,4.20
2023-05-19T20:43:19.934Z,4.10
2023-05-19T20:48:21.607Z,3.80
2023-05-19T20:53:23.180Z,4.25
2023-05-19T20:58:26.847Z,4.68
2023-05-19T21:03:28.758Z,4.90
2023-05-19T21:08:30.424Z,4.82
2023-05-19T21:13:32.375Z,4.85
2023-05-19T21:18:34.932Z,4.75
2023-05-19T21:23:36.974Z,6.82
2023-05-19T21:28:38.597Z,6.20
2023-05-19T21:33:40.112Z,6.50
2023-05-19T21:38:41.707Z,6.70
2023-05-19T21:43:45.257Z,6.88
2023-05-19T21:48:46.871Z,7.47
2023-05-19T21:53:48.465Z,7.95
2023-05-19T21:58:49.954Z,7.05
2023-05-19T22:03:52.412Z,7.68
2023-05-19T22:08:54.132Z,7.75
2023-05-19T22:13:55.712Z,7.85
2023-05-19T22:18:57.241Z,7.40
2023-05-19T22:23:58.893Z,8.23
2023-05-19T22:29:00.511Z,8.38
2023-05-19T22:34:02.100Z,7.60
2023-05-19T22:39:03.788Z,7.65
2023-05-19T22:44:05.546Z,7.38
2023-05-19T22:49:07.045Z,6.55
2023-05-19T22:54:08.686Z,7.43
2023-05-19T22:59:10.326Z,7.70
2023-05-19T23:04:11.989Z,7.40
2023-05-19T23:09:13.564Z,8.18
2023-05-19T23:14:15.524Z,8.93
2023-05-19T23:19:17.276Z,9.23
2023-05-19T23:24:18.955Z,9.52
2023-05-19T23:29:20.456Z,9.38
2023-05-19T23:34:21.987Z,9.27
2023-05-19T23:39:25.463Z,9.77
2023-05-19T23:44:27.327Z,10.45
2023-05-19T23:49:28.915Z,9.43
2023-05-19T23:54:30.574Z,9.82
2023-05-19T23:59:32.122Z,10.02
